Shermans Dale, Pennsylvania
Current Conditions -  °F | °C
As of 6:56 PM on Friday 21 Nov 2014 (Local Time) from KCXY Reporting Station
Clear Clear  
Wind Chill: 23°   Ceiling: Unl
Heat Index: 29°   Visibility: 10mi
Dew Point:   Wind: 6mph
Humidity: 43%   Direction: 290°WNW
Pressure: 30.51"   Gusts: NA
Location:  40.32°N, 77.17°W
Report Text: KCXY 212356Z 29005KT 10SM CLR M02/M13 A3051 RMK AO2 SLP338 T10171128 10017 21017 51019
Loading
Personal Weather Stations






























Interactive Weather Map New forecast layout! Learn more

10-Day Weather Forecast

Advertisements
Track Severe Weather on mobile